sensor_id;sensor_type;location;lat;lon;timestamp;temperature;humidity
27200;DHT22;14714;48.106;11.546;2022-08-05T00:02:26;19.40;99.90
27200;DHT22;14714;48.106;11.546;2022-08-05T00:04:54;19.40;99.90
27200;DHT22;14714;48.106;11.546;2022-08-05T00:07:22;19.30;99.90
27200;DHT22;14714;48.106;11.546;2022-08-05T00:10:09;19.30;99.90
27200;DHT22;14714;48.106;11.546;2022-08-05T00:12:37;19.30;99.90
27200;DHT22;14714;48.106;11.546;2022-08-05T00:15:23;19.30;99.90
27200;DHT22;14714;48.106;11.546;2022-08-05T00:18:10;19.30;99.90
27200;DHT22;14714;48.106;11.546;2022-08-05T00:20:49;19.20;99.90
27200;DHT22;14714;48.106;11.546;2022-08-05T00:23:17;19.20;99.90
27200;DHT22;14714;48.106;11.546;2022-08-05T00:26:04;19.20;99.90
27200;DHT22;14714;48.106;11.546;2022-08-05T00:28:31;19.10;99.90
27200;DHT22;14714;48.106;11.546;2022-08-05T00:30:59;19.10;99.90
27200;DHT22;14714;48.106;11.546;2022-08-05T00:33:30;19.00;99.90
27200;DHT22;14714;48.106;11.546;2022-08-05T00:36:17;19.00;99.90
27200;DHT22;14714;48.106;11.546;2022-08-05T00:39:04;19.00;99.90
27200;DHT22;14714;48.106;11.546;2022-08-05T00:41:39;19.00;99.90
27200;DHT22;14714;48.106;11.546;2022-08-05T00:44:21;18.90;99.90
27200;DHT22;14714;48.106;11.546;2022-08-05T00:46:56;18.90;99.90
27200;DHT22;14714;48.106;11.546;2022-08-05T00:49:30;18.90;99.90
27200;DHT22;14714;48.106;11.546;2022-08-05T00:52:09;18.90;99.90
27200;DHT22;14714;48.106;11.546;2022-08-05T00:54:37;18.90;99.90
27200;DHT22;14714;48.106;11.546;2022-08-05T00:57:04;18.90;99.90
27200;DHT22;14714;48.106;11.546;2022-08-05T00:59:31;18.90;99.90
27200;DHT22;14714;48.106;11.546;2022-08-05T01:02:10;18.90;99.90
27200;DHT22;14714;48.106;11.546;2022-08-05T01:04:37;18.80;99.90
27200;DHT22;14714;48.106;11.546;2022-08-05T01:07:07;18.80;99.90
27200;DHT22;14714;48.106;11.546;2022-08-05T01:09:55;18.80;99.90
27200;DHT22;14714;48.106;11.546;2022-08-05T01:12:22;18.80;99.90
27200;DHT22;14714;48.106;11.546;2022-08-05T01:15:00;18.80;99.90
27200;DHT22;14714;48.106;11.546;2022-08-05T01:23:15;18.70;99.90
27200;DHT22;14714;48.106;11.546;2022-08-05T01:29:33;18.70;99.90
27200;DHT22;14714;48.106;11.546;2022-08-05T01:32:06;18.70;99.90
27200;DHT22;14714;48.106;11.546;2022-08-05T01:34:44;18.70;99.90
27200;DHT22;14714;48.106;11.546;2022-08-05T01:37:21;18.70;99.90
27200;DHT22;14714;48.106;11.546;2022-08-05T01:39:52;18.70;99.90
27200;DHT22;14714;48.106;11.546;2022-08-05T01:42:25;18.80;99.90
27200;DHT22;14714;48.106;11.546;2022-08-05T01:44:55;18.80;99.90
27200;DHT22;14714;48.106;11.546;2022-08-05T01:47:26;18.80;99.90
27200;DHT22;14714;48.106;11.546;2022-08-05T01:50:14;18.80;99.90
27200;DHT22;14714;48.106;11.546;2022-08-05T01:52:45;18.80;99.90
27200;DHT22;14714;48.106;11.546;2022-08-05T01:55:17;18.80;99.90
27200;DHT22;14714;48.106;11.546;2022-08-05T01:57:47;18.80;99.90
27200;DHT22;14714;48.106;11.546;2022-08-05T02:00:37;18.90;99.90
27200;DHT22;14714;48.106;11.546;2022-08-05T02:03:11;18.80;99.90
27200;DHT22;14714;48.106;11.546;2022-08-05T02:05:58;18.90;99.90
27200;DHT22;14714;48.106;11.546;2022-08-05T02:08:29;18.90;99.90
27200;DHT22;14714;48.106;11.546;2022-08-05T02:11:11;18.90;99.90
27200;DHT22;14714;48.106;11.546;2022-08-05T02:13:52;18.90;99.90
27200;DHT22;14714;48.106;11.546;2022-08-05T02:16:30;18.90;99.90
27200;DHT22;14714;48.106;11.546;2022-08-05T02:19:11;18.80;99.90
27200;DHT22;14714;48.106;11.546;2022-08-05T02:21:44;18.80;99.90
27200;DHT22;14714;48.106;11.546;2022-08-05T02:24:18;18.80;99.90
27200;DHT22;14714;48.106;11.546;2022-08-05T02:26:53;18.80;99.90
27200;DHT22;14714;48.106;11.546;2022-08-05T02:29:24;18.80;99.90
27200;DHT22;14714;48.106;11.546;2022-08-05T02:32:12;18.80;99.90
27200;DHT22;14714;48.106;11.546;2022-08-05T02:34:50;18.80;99.90
27200;DHT22;14714;48.106;11.546;2022-08-05T02:37:21;18.80;99.90
27200;DHT22;14714;48.106;11.546;2022-08-05T02:39:50;18.80;99.90
27200;DHT22;14714;48.106;11.546;2022-08-05T02:42:18;18.80;99.90
27200;DHT22;14714;48.106;11.546;2022-08-05T02:44:54;18.80;99.90
27200;DHT22;14714;48.106;11.546;2022-08-05T02:47:23;18.70;99.90
27200;DHT22;14714;48.106;11.546;2022-08-05T02:50:11;18.80;99.90
27200;DHT22;14714;48.106;11.546;2022-08-05T02:52:44;18.80;99.90
27200;DHT22;14714;48.106;11.546;2022-08-05T02:55:12;18.80;99.90
27200;DHT22;14714;48.106;11.546;2022-08-05T02:57:43;18.70;99.90
27200;DHT22;14714;48.106;11.546;2022-08-05T03:00:33;18.80;99.90
27200;DHT22;14714;48.106;11.546;2022-08-05T03:03:01;18.70;99.90
27200;DHT22;14714;48.106;11.546;2022-08-05T03:05:37;18.70;99.90
27200;DHT22;14714;48.106;11.546;2022-08-05T03:08:25;18.70;99.90
27200;DHT22;14714;48.106;11.546;2022-08-05T03:10:55;18.60;99.90
27200;DHT22;14714;48.106;11.546;2022-08-05T03:13:42;18.60;99.90
27200;DHT22;14714;48.106;11.546;2022-08-05T03:16:29;18.60;99.90
27200;DHT22;14714;48.106;11.546;2022-08-05T03:18:58;18.50;99.90
27200;DHT22;14714;48.106;11.546;2022-08-05T03:21:25;18.50;99.90
27200;DHT22;14714;48.106;11.546;2022-08-05T03:23:58;18.50;99.90
27200;DHT22;14714;48.106;11.546;2022-08-05T03:26:28;18.40;99.90
27200;DHT22;14714;48.106;11.546;2022-08-05T03:28:58;18.40;99.90
27200;DHT22;14714;48.106;11.546;2022-08-05T03:31:26;18.40;99.90
27200;DHT22;14714;48.106;11.546;2022-08-05T03:34:14;18.30;99.90
27200;DHT22;14714;48.106;11.546;2022-08-05T03:36:42;18.30;99.90
27200;DHT22;14714;48.106;11.546;2022-08-05T03:39:09;18.30;99.90
27200;DHT22;14714;48.106;11.546;2022-08-05T03:41:45;18.20;99.90
27200;DHT22;14714;48.106;11.546;2022-08-05T03:44:13;18.20;99.90
27200;DHT22;14714;48.106;11.546;2022-08-05T03:46:45;18.20;99.90
27200;DHT22;14714;48.106;11.546;2022-08-05T03:49:14;18.20;99.90
27200;DHT22;14714;48.106;11.546;2022-08-05T03:51:57;18.20;99.90
27200;DHT22;14714;48.106;11.546;2022-08-05T03:54:57;18.20;99.90
27200;DHT22;14714;48.106;11.546;2022-08-05T03:57:47;18.10;99.90
27200;DHT22;14714;48.106;11.546;2022-08-05T04:00:17;18.10;99.90
27200;DHT22;14714;48.106;11.546;2022-08-05T04:02:47;18.20;99.90
27200;DHT22;14714;48.106;11.546;2022-08-05T04:05:27;18.10;99.90
27200;DHT22;14714;48.106;11.546;2022-08-05T04:08:01;18.10;99.90
27200;DHT22;14714;48.106;11.546;2022-08-05T04:10:32;18.10;99.90
27200;DHT22;14714;48.106;11.546;2022-08-05T04:13:06;18.10;99.90
27200;DHT22;14714;48.106;11.546;2022-08-05T04:15:34;18.20;99.90
27200;DHT22;14714;48.106;11.546;2022-08-05T04:18:05;18.10;99.90
27200;DHT22;14714;48.106;11.546;2022-08-05T04:20:35;18.10;99.90
27200;DHT22;14714;48.106;11.546;2022-08-05T04:23:02;18.20;99.90
27200;DHT22;14714;48.106;11.546;2022-08-05T04:25:29;18.20;99.90
27200;DHT22;14714;48.106;11.546;2022-08-05T04:28:17;18.20;99.90
27200;DHT22;14714;48.106;11.546;2022-08-05T04:30:45;18.30;99.90
27200;DHT22;14714;48.106;11.546;2022-08-05T04:33:14;18.30;99.90
27200;DHT22;14714;48.106;11.546;2022-08-05T04:35:41;18.40;99.90
27200;DHT22;14714;48.106;11.546;2022-08-05T04:38:28;18.50;99.90
27200;DHT22;14714;48.106;11.546;2022-08-05T04:41:06;18.70;99.90
27200;DHT22;14714;48.106;11.546;2022-08-05T04:43:36;18.90;99.90
27200;DHT22;14714;48.106;11.546;2022-08-05T04:46:12;19.20;99.90
27200;DHT22;14714;48.106;11.546;2022-08-05T04:48:53;19.60;99.90
27200;DHT22;14714;48.106;11.546;2022-08-05T04:51:20;19.90;99.90
27200;DHT22;14714;48.106;11.546;2022-08-05T04:53:48;20.30;99.90
27200;DHT22;14714;48.106;11.546;2022-08-05T04:56:15;20.60;99.90
27200;DHT22;14714;48.106;11.546;2022-08-05T04:59:02;20.90;99.90
27200;DHT22;14714;48.106;11.546;2022-08-05T05:01:48;21.30;99.90
27200;DHT22;14714;48.106;11.546;2022-08-05T05:04:35;21.60;99.90
27200;DHT22;14714;48.106;11.546;2022-08-05T05:07:09;22.40;99.90
27200;DHT22;14714;48.106;11.546;2022-08-05T05:09:36;23.70;99.90
27200;DHT22;14714;48.106;11.546;2022-08-05T05:12:04;25.10;99.90
27200;DHT22;14714;48.106;11.546;2022-08-05T05:14:32;26.60;99.90
27200;DHT22;14714;48.106;11.546;2022-08-05T05:17:02;28.10;99.90
27200;DHT22;14714;48.106;11.546;2022-08-05T05:19:33;29.60;99.90
27200;DHT22;14714;48.106;11.546;2022-08-05T05:22:11;31.00;93.70
27200;DHT22;14714;48.106;11.546;2022-08-05T05:24:53;32.40;85.50
27200;DHT22;14714;48.106;11.546;2022-08-05T05:27:26;33.70;74.20
27200;DHT22;14714;48.106;11.546;2022-08-05T05:30:13;34.80;64.10
27200;DHT22;14714;48.106;11.546;2022-08-05T05:32:54;36.00;58.00
27200;DHT22;14714;48.106;11.546;2022-08-05T05:35:21;37.00;52.40
27200;DHT22;14714;48.106;11.546;2022-08-05T05:37:52;37.80;48.90
27200;DHT22;14714;48.106;11.546;2022-08-05T05:40:27;38.60;45.90
27200;DHT22;14714;48.106;11.546;2022-08-05T05:42:55;39.40;43.20
27200;DHT22;14714;48.106;11.546;2022-08-05T05:45:22;39.90;41.50
27200;DHT22;14714;48.106;11.546;2022-08-05T05:47:51;40.50;40.40
27200;DHT22;14714;48.106;11.546;2022-08-05T05:50:33;41.00;38.80
27200;DHT22;14714;48.106;11.546;2022-08-05T05:53:10;41.70;37.20
27200;DHT22;14714;48.106;11.546;2022-08-05T05:55:49;42.30;36.00
27200;DHT22;14714;48.106;11.546;2022-08-05T05:58:27;43.00;34.20
27200;DHT22;14714;48.106;11.546;2022-08-05T06:00:58;43.50;33.00
27200;DHT22;14714;48.106;11.546;2022-08-05T06:03:39;44.00;32.40
27200;DHT22;14714;48.106;11.546;2022-08-05T06:06:26;44.30;31.80
27200;DHT22;14714;48.106;11.546;2022-08-05T06:08:53;44.00;31.70
27200;DHT22;14714;48.106;11.546;2022-08-05T06:11:21;43.80;29.90
27200;DHT22;14714;48.106;11.546;2022-08-05T06:13:47;42.10;30.90
27200;DHT22;14714;48.106;11.546;2022-08-05T06:16:19;40.40;34.00
27200;DHT22;14714;48.106;11.546;2022-08-05T06:18:56;38.90;37.60
27200;DHT22;14714;48.106;11.546;2022-08-05T06:21:26;38.50;37.20
27200;DHT22;14714;48.106;11.546;2022-08-05T06:24:05;39.20;37.20
27200;DHT22;14714;48.106;11.546;2022-08-05T06:26:35;40.40;36.50
27200;DHT22;14714;48.106;11.546;2022-08-05T06:29:02;41.40;34.10
27200;DHT22;14714;48.106;11.546;2022-08-05T06:31:49;42.30;32.20
27200;DHT22;14714;48.106;11.546;2022-08-05T06:34:16;43.50;31.10
27200;DHT22;14714;48.106;11.546;2022-08-05T06:36:45;44.30;30.10
27200;DHT22;14714;48.106;11.546;2022-08-05T06:39:25;45.10;28.80
27200;DHT22;14714;48.106;11.546;2022-08-05T06:41:56;45.70;28.60
27200;DHT22;14714;48.106;11.546;2022-08-05T06:44:24;45.90;27.90
27200;DHT22;14714;48.106;11.546;2022-08-05T06:46:51;46.10;27.70
27200;DHT22;14714;48.106;11.546;2022-08-05T06:49:20;46.50;27.50
27200;DHT22;14714;48.106;11.546;2022-08-05T06:52:07;46.50;26.70
27200;DHT22;14714;48.106;11.546;2022-08-05T06:54:53;45.70;28.30
27200;DHT22;14714;48.106;11.546;2022-08-05T06:57:20;45.10;28.40
27200;DHT22;14714;48.106;11.546;2022-08-05T07:00:08;43.20;30.10
27200;DHT22;14714;48.106;11.546;2022-08-05T07:02:42;40.90;32.70
27200;DHT22;14714;48.106;11.546;2022-08-05T07:05:10;38.90;34.60
27200;DHT22;14714;48.106;11.546;2022-08-05T07:07:44;37.60;38.80
27200;DHT22;14714;48.106;11.546;2022-08-05T07:10:14;36.50;40.60
27200;DHT22;14714;48.106;11.546;2022-08-05T07:12:43;35.50;41.70
27200;DHT22;14714;48.106;11.546;2022-08-05T07:15:28;34.80;44.00
27200;DHT22;14714;48.106;11.546;2022-08-05T07:18:30;34.00;45.60
27200;DHT22;14714;48.106;11.546;2022-08-05T07:20:58;33.10;45.70
27200;DHT22;14714;48.106;11.546;2022-08-05T07:23:31;32.50;47.70
27200;DHT22;14714;48.106;11.546;2022-08-05T07:25:58;31.90;49.30
27200;DHT22;14714;48.106;11.546;2022-08-05T07:28:25;31.50;49.70
27200;DHT22;14714;48.106;11.546;2022-08-05T07:30:51;31.10;51.80
27200;DHT22;14714;48.106;11.546;2022-08-05T07:33:21;30.80;51.90
27200;DHT22;14714;48.106;11.546;2022-08-05T07:36:03;30.50;52.90
27200;DHT22;14714;48.106;11.546;2022-08-05T07:38:47;30.20;53.90
27200;DHT22;14714;48.106;11.546;2022-08-05T07:41:17;30.00;54.90
27200;DHT22;14714;48.106;11.546;2022-08-05T07:44:06;29.90;55.00
27200;DHT22;14714;48.106;11.546;2022-08-05T07:46:44;30.00;55.60
27200;DHT22;14714;48.106;11.546;2022-08-05T07:49:13;30.30;55.40
27200;DHT22;14714;48.106;11.546;2022-08-05T07:51:40;30.70;55.00
27200;DHT22;14714;48.106;11.546;2022-08-05T07:54:22;31.20;52.90
27200;DHT22;14714;48.106;11.546;2022-08-05T07:57:01;32.50;51.60
27200;DHT22;14714;48.106;11.546;2022-08-05T07:59:48;34.20;46.90
27200;DHT22;14714;48.106;11.546;2022-08-05T08:02:15;35.80;42.40
27200;DHT22;14714;48.106;11.546;2022-08-05T08:04:47;35.80;43.00
27200;DHT22;14714;48.106;11.546;2022-08-05T08:07:16;36.30;42.20
27200;DHT22;14714;48.106;11.546;2022-08-05T08:09:49;37.20;39.30
27200;DHT22;14714;48.106;11.546;2022-08-05T08:12:19;37.60;39.30
27200;DHT22;14714;48.106;11.546;2022-08-05T08:15:06;38.20;37.60
27200;DHT22;14714;48.106;11.546;2022-08-05T08:17:41;38.80;36.20
27200;DHT22;14714;48.106;11.546;2022-08-05T08:20:21;39.70;35.40
27200;DHT22;14714;48.106;11.546;2022-08-05T08:23:08;40.50;34.00
27200;DHT22;14714;48.106;11.546;2022-08-05T08:25:55;41.00;32.50
27200;DHT22;14714;48.106;11.546;2022-08-05T08:28:27;41.10;31.80
27200;DHT22;14714;48.106;11.546;2022-08-05T08:31:08;41.30;31.80
27200;DHT22;14714;48.106;11.546;2022-08-05T08:33:40;41.50;32.00
27200;DHT22;14714;48.106;11.546;2022-08-05T08:36:09;41.30;32.20
27200;DHT22;14714;48.106;11.546;2022-08-05T08:38:56;41.60;30.30
27200;DHT22;14714;48.106;11.546;2022-08-05T08:41:25;41.40;30.40
27200;DHT22;14714;48.106;11.546;2022-08-05T08:44:20;41.00;30.80
27200;DHT22;14714;48.106;11.546;2022-08-05T08:47:07;40.40;31.50
27200;DHT22;14714;48.106;11.546;2022-08-05T08:49:56;39.90;31.70
27200;DHT22;14714;48.106;11.546;2022-08-05T08:52:53;39.80;32.10
27200;DHT22;14714;48.106;11.546;2022-08-05T08:55:22;39.30;33.00
27200;DHT22;14714;48.106;11.546;2022-08-05T08:58:09;39.50;33.70
27200;DHT22;14714;48.106;11.546;2022-08-05T09:00:39;39.80;32.70
27200;DHT22;14714;48.106;11.546;2022-08-05T09:03:08;39.70;32.80
27200;DHT22;14714;48.106;11.546;2022-08-05T09:05:36;39.60;32.90
27200;DHT22;14714;48.106;11.546;2022-08-05T09:08:23;39.50;32.40
27200;DHT22;14714;48.106;11.546;2022-08-05T09:10:56;39.40;33.40
27200;DHT22;14714;48.106;11.546;2022-08-05T09:13:23;39.50;33.50
27200;DHT22;14714;48.106;11.546;2022-08-05T09:15:57;39.50;33.70
27200;DHT22;14714;48.106;11.546;2022-08-05T09:18:24;39.60;33.40
27200;DHT22;14714;48.106;11.546;2022-08-05T09:20:51;39.40;33.50
27200;DHT22;14714;48.106;11.546;2022-08-05T09:23:19;39.50;33.40
27200;DHT22;14714;48.106;11.546;2022-08-05T09:26:09;39.30;34.00
27200;DHT22;14714;48.106;11.546;2022-08-05T09:28:46;39.40;33.60
27200;DHT22;14714;48.106;11.546;2022-08-05T09:31:14;39.60;33.40
27200;DHT22;14714;48.106;11.546;2022-08-05T09:34:03;40.00;32.60
27200;DHT22;14714;48.106;11.546;2022-08-05T09:39:24;39.70;33.80
27200;DHT22;14714;48.106;11.546;2022-08-05T09:42:13;40.10;33.50
27200;DHT22;14714;48.106;11.546;2022-08-05T09:44:53;40.50;32.90
27200;DHT22;14714;48.106;11.546;2022-08-05T09:47:24;41.00;32.30
27200;DHT22;14714;48.106;11.546;2022-08-05T09:49:53;41.40;31.40
27200;DHT22;14714;48.106;11.546;2022-08-05T09:52:30;41.60;30.50
27200;DHT22;14714;48.106;11.546;2022-08-05T09:57:50;41.90;30.90
27200;DHT22;14714;48.106;11.546;2022-08-05T10:00:24;41.90;30.00
27200;DHT22;14714;48.106;11.546;2022-08-05T10:02:52;41.50;30.60
27200;DHT22;14714;48.106;11.546;2022-08-05T10:05:26;40.80;31.30
27200;DHT22;14714;48.106;11.546;2022-08-05T10:10:48;39.00;33.70
27200;DHT22;14714;48.106;11.546;2022-08-05T10:13:45;38.40;35.60
27200;DHT22;14714;48.106;11.546;2022-08-05T10:16:44;38.10;35.70
27200;DHT22;14714;48.106;11.546;2022-08-05T10:19:19;37.80;37.00
27200;DHT22;14714;48.106;11.546;2022-08-05T10:21:57;37.60;37.80
27200;DHT22;14714;48.106;11.546;2022-08-05T10:24:24;37.50;36.70
27200;DHT22;14714;48.106;11.546;2022-08-05T10:26:52;36.90;37.30
27200;DHT22;14714;48.106;11.546;2022-08-05T10:29:27;36.70;38.40
27200;DHT22;14714;48.106;11.546;2022-08-05T10:32:15;36.70;38.90
27200;DHT22;14714;48.106;11.546;2022-08-05T10:35:02;36.70;39.10
27200;DHT22;14714;48.106;11.546;2022-08-05T10:37:30;36.40;38.70
27200;DHT22;14714;48.106;11.546;2022-08-05T10:40:21;36.40;38.70
27200;DHT22;14714;48.106;11.546;2022-08-05T10:42:57;36.60;37.60
27200;DHT22;14714;48.106;11.546;2022-08-05T10:45:28;36.60;37.90
27200;DHT22;14714;48.106;11.546;2022-08-05T10:48:45;36.80;37.70
27200;DHT22;14714;48.106;11.546;2022-08-05T10:51:24;36.60;37.70
27200;DHT22;14714;48.106;11.546;2022-08-05T10:53:55;36.10;38.30
27200;DHT22;14714;48.106;11.546;2022-08-05T10:56:28;36.00;38.90
27200;DHT22;14714;48.106;11.546;2022-08-05T11:01:45;35.80;39.20
27200;DHT22;14714;48.106;11.546;2022-08-05T11:04:22;36.00;38.80
27200;DHT22;14714;48.106;11.546;2022-08-05T11:10:01;34.80;40.10
27200;DHT22;14714;48.106;11.546;2022-08-05T11:17:50;34.50;41.60
27200;DHT22;14714;48.106;11.546;2022-08-05T11:20:35;34.90;41.20
27200;DHT22;14714;48.106;11.546;2022-08-05T11:26:19;35.20;40.90
27200;DHT22;14714;48.106;11.546;2022-08-05T11:28:57;35.40;40.70
27200;DHT22;14714;48.106;11.546;2022-08-05T11:31:38;35.50;40.00
27200;DHT22;14714;48.106;11.546;2022-08-05T11:34:39;35.10;39.70
27200;DHT22;14714;48.106;11.546;2022-08-05T11:41:01;33.80;40.60
27200;DHT22;14714;48.106;11.546;2022-08-05T11:43:55;33.10;43.10
27200;DHT22;14714;48.106;11.546;2022-08-05T11:49:04;32.40;44.00
27200;DHT22;14714;48.106;11.546;2022-08-05T11:51:34;32.40;45.20
27200;DHT22;14714;48.106;11.546;2022-08-05T11:54:25;32.40;45.80
27200;DHT22;14714;48.106;11.546;2022-08-05T11:57:02;32.30;45.70
27200;DHT22;14714;48.106;11.546;2022-08-05T11:59:49;32.20;45.80
27200;DHT22;14714;48.106;11.546;2022-08-05T12:02:16;32.30;45.00
27200;DHT22;14714;48.106;11.546;2022-08-05T12:04:55;32.50;45.30
27200;DHT22;14714;48.106;11.546;2022-08-05T12:07:25;32.60;44.60
27200;DHT22;14714;48.106;11.546;2022-08-05T12:10:17;32.80;45.20
27200;DHT22;14714;48.106;11.546;2022-08-05T12:12:45;33.00;45.70
27200;DHT22;14714;48.106;11.546;2022-08-05T12:15:25;33.30;45.70
27200;DHT22;14714;48.106;11.546;2022-08-05T12:18:04;33.30;44.90
27200;DHT22;14714;48.106;11.546;2022-08-05T12:20:37;33.30;45.00
27200;DHT22;14714;48.106;11.546;2022-08-05T12:23:07;33.20;44.10
27200;DHT22;14714;48.106;11.546;2022-08-05T12:25:52;33.00;44.20
27200;DHT22;14714;48.106;11.546;2022-08-05T12:28:38;32.70;44.20
27200;DHT22;14714;48.106;11.546;2022-08-05T12:31:05;32.60;44.70
27200;DHT22;14714;48.106;11.546;2022-08-05T12:33:32;32.50;44.50
27200;DHT22;14714;48.106;11.546;2022-08-05T12:36:07;32.40;45.00
27200;DHT22;14714;48.106;11.546;2022-08-05T12:38:38;32.40;44.90
27200;DHT22;14714;48.106;11.546;2022-08-05T12:41:14;32.10;44.80
27200;DHT22;14714;48.106;11.546;2022-08-05T12:44:11;32.00;46.20
27200;DHT22;14714;48.106;11.546;2022-08-05T12:46:41;32.00;45.60
27200;DHT22;14714;48.106;11.546;2022-08-05T12:49:13;32.00;45.10
27200;DHT22;14714;48.106;11.546;2022-08-05T12:54:34;31.70;46.20
27200;DHT22;14714;48.106;11.546;2022-08-05T12:57:04;31.70;47.40
27200;DHT22;14714;48.106;11.546;2022-08-05T12:59:50;31.70;47.70
27200;DHT22;14714;48.106;11.546;2022-08-05T13:02:37;31.90;47.70
27200;DHT22;14714;48.106;11.546;2022-08-05T13:05:06;32.00;46.20
27200;DHT22;14714;48.106;11.546;2022-08-05T13:07:38;32.10;45.90
27200;DHT22;14714;48.106;11.546;2022-08-05T13:10:25;32.10;45.90
27200;DHT22;14714;48.106;11.546;2022-08-05T13:12:55;32.00;46.30
27200;DHT22;14714;48.106;11.546;2022-08-05T13:15:30;32.00;46.10
27200;DHT22;14714;48.106;11.546;2022-08-05T13:18:17;32.10;47.20
27200;DHT22;14714;48.106;11.546;2022-08-05T13:20:46;32.10;46.80
27200;DHT22;14714;48.106;11.546;2022-08-05T13:23:15;32.00;48.00
27200;DHT22;14714;48.106;11.546;2022-08-05T13:25:48;31.90;45.90
27200;DHT22;14714;48.106;11.546;2022-08-05T13:28:25;31.60;47.30
27200;DHT22;14714;48.106;11.546;2022-08-05T13:30:52;31.60;47.30
27200;DHT22;14714;48.106;11.546;2022-08-05T13:33:20;31.60;47.30
27200;DHT22;14714;48.106;11.546;2022-08-05T13:36:07;31.70;48.80
27200;DHT22;14714;48.106;11.546;2022-08-05T13:38:35;31.90;48.40
27200;DHT22;14714;48.106;11.546;2022-08-05T13:41:09;31.90;47.90
27200;DHT22;14714;48.106;11.546;2022-08-05T13:43:37;32.00;48.10
27200;DHT22;14714;48.106;11.546;2022-08-05T13:46:21;31.90;48.20
27200;DHT22;14714;48.106;11.546;2022-08-05T13:49:08;32.00;48.20
27200;DHT22;14714;48.106;11.546;2022-08-05T13:51:38;31.90;47.10
27200;DHT22;14714;48.106;11.546;2022-08-05T13:54:07;32.00;48.50
27200;DHT22;14714;48.106;11.546;2022-08-05T13:56:39;32.00;48.20
27200;DHT22;14714;48.106;11.546;2022-08-05T13:59:20;32.00;48.10
27200;DHT22;14714;48.106;11.546;2022-08-05T14:01:55;31.90;49.50
27200;DHT22;14714;48.106;11.546;2022-08-05T14:04:30;31.90;48.70
27200;DHT22;14714;48.106;11.546;2022-08-05T14:07:20;31.80;47.60
27200;DHT22;14714;48.106;11.546;2022-08-05T14:12:39;31.90;49.30
27200;DHT22;14714;48.106;11.546;2022-08-05T14:15:14;31.90;48.00
27200;DHT22;14714;48.106;11.546;2022-08-05T14:18:01;31.90;49.70
27200;DHT22;14714;48.106;11.546;2022-08-05T14:20:30;31.90;47.90
27200;DHT22;14714;48.106;11.546;2022-08-05T14:22:58;31.90;49.50
27200;DHT22;14714;48.106;11.546;2022-08-05T14:25:26;31.90;48.90
27200;DHT22;14714;48.106;11.546;2022-08-05T14:27:54;31.90;48.30
27200;DHT22;14714;48.106;11.546;2022-08-05T14:30:21;31.90;48.80
27200;DHT22;14714;48.106;11.546;2022-08-05T14:32:52;31.90;47.90
27200;DHT22;14714;48.106;11.546;2022-08-05T14:35:19;31.80;47.80
27200;DHT22;14714;48.106;11.546;2022-08-05T14:37:48;31.70;47.90
27200;DHT22;14714;48.106;11.546;2022-08-05T14:40:20;31.70;47.80
27200;DHT22;14714;48.106;11.546;2022-08-05T14:42:50;31.60;46.90
27200;DHT22;14714;48.106;11.546;2022-08-05T14:45:17;31.50;46.40
27200;DHT22;14714;48.106;11.546;2022-08-05T14:47:44;31.50;47.10
27200;DHT22;14714;48.106;11.546;2022-08-05T14:50:31;31.30;46.70
27200;DHT22;14714;48.106;11.546;2022-08-05T14:53:05;31.20;49.00
27200;DHT22;14714;48.106;11.546;2022-08-05T14:55:32;31.20;48.50
27200;DHT22;14714;48.106;11.546;2022-08-05T14:58:06;31.10;48.70
27200;DHT22;14714;48.106;11.546;2022-08-05T15:00:40;31.10;49.70
27200;DHT22;14714;48.106;11.546;2022-08-05T15:03:29;31.00;50.80
27200;DHT22;14714;48.106;11.546;2022-08-05T15:06:04;30.90;50.20
27200;DHT22;14714;48.106;11.546;2022-08-05T15:08:40;30.90;51.00
27200;DHT22;14714;48.106;11.546;2022-08-05T15:11:27;30.80;50.70
27200;DHT22;14714;48.106;11.546;2022-08-05T15:14:13;30.80;50.10
27200;DHT22;14714;48.106;11.546;2022-08-05T15:17:00;30.70;50.70
27200;DHT22;14714;48.106;11.546;2022-08-05T15:19:29;30.60;49.40
27200;DHT22;14714;48.106;11.546;2022-08-05T15:21:57;30.50;48.90
27200;DHT22;14714;48.106;11.546;2022-08-05T15:24:27;30.50;49.00
27200;DHT22;14714;48.106;11.546;2022-08-05T15:26:54;30.50;49.60
27200;DHT22;14714;48.106;11.546;2022-08-05T15:29:22;30.50;49.70
27200;DHT22;14714;48.106;11.546;2022-08-05T15:31:56;30.50;49.90
27200;DHT22;14714;48.106;11.546;2022-08-05T15:34:29;30.50;51.90
27200;DHT22;14714;48.106;11.546;2022-08-05T15:36:59;30.50;50.40
27200;DHT22;14714;48.106;11.546;2022-08-05T15:39:32;30.50;50.60
27200;DHT22;14714;48.106;11.546;2022-08-05T15:42:19;30.50;51.00
27200;DHT22;14714;48.106;11.546;2022-08-05T15:45:06;30.50;51.00
27200;DHT22;14714;48.106;11.546;2022-08-05T15:47:36;30.50;51.40
27200;DHT22;14714;48.106;11.546;2022-08-05T15:50:05;30.50;51.50
27200;DHT22;14714;48.106;11.546;2022-08-05T15:52:33;30.40;52.90
27200;DHT22;14714;48.106;11.546;2022-08-05T15:55:20;30.40;52.20
27200;DHT22;14714;48.106;11.546;2022-08-05T15:58:07;30.30;52.40
27200;DHT22;14714;48.106;11.546;2022-08-05T16:00:34;30.30;53.50
27200;DHT22;14714;48.106;11.546;2022-08-05T16:03:21;30.30;53.20
27200;DHT22;14714;48.106;11.546;2022-08-05T16:05:48;30.30;54.80
27200;DHT22;14714;48.106;11.546;2022-08-05T16:08:21;30.30;52.60
27200;DHT22;14714;48.106;11.546;2022-08-05T16:10:50;30.20;52.60
27200;DHT22;14714;48.106;11.546;2022-08-05T16:13:17;30.20;53.40
27200;DHT22;14714;48.106;11.546;2022-08-05T16:15:57;30.20;54.10
27200;DHT22;14714;48.106;11.546;2022-08-05T16:18:24;30.20;54.00
27200;DHT22;14714;48.106;11.546;2022-08-05T16:20:54;30.20;54.30
27200;DHT22;14714;48.106;11.546;2022-08-05T16:23:21;30.20;54.40
27200;DHT22;14714;48.106;11.546;2022-08-05T16:25:48;30.10;54.40
27200;DHT22;14714;48.106;11.546;2022-08-05T16:28:21;30.10;54.20
27200;DHT22;14714;48.106;11.546;2022-08-05T16:30:49;30.10;53.50
27200;DHT22;14714;48.106;11.546;2022-08-05T16:33:18;30.00;53.00
27200;DHT22;14714;48.106;11.546;2022-08-05T16:35:45;30.00;55.30
27200;DHT22;14714;48.106;11.546;2022-08-05T16:38:18;30.00;55.00
27200;DHT22;14714;48.106;11.546;2022-08-05T16:40:52;30.00;55.40
27200;DHT22;14714;48.106;11.546;2022-08-05T16:43:28;30.00;54.80
27200;DHT22;14714;48.106;11.546;2022-08-05T16:45:56;29.90;55.10
27200;DHT22;14714;48.106;11.546;2022-08-05T16:48:34;29.90;55.20
27200;DHT22;14714;48.106;11.546;2022-08-05T16:51:02;29.80;53.80